Time;durP1;ratioP1;P1;durP2;ratioP2;P2;SDS_P1;SDS_P2;PMS_P1;PMS_P2;Temp;Humidity;BMP_temperature;BMP_pressure;BME280_temperature;BME280_humidity;BME280_pressure;Samples;Min_cycle;Max_cycle;Signal;HPM_P1;HPM_P2
2021/03/05 00:02:21;;;;;;;;;;;;;;;19.53;37.77;100676.56;5116946;28;854;-45
2021/03/05 00:04:46;;;;;;;;;;;;;;;20.43;35.98;100671.94;5117025;28;818;-45
2021/03/05 00:07:12;;;;;;;;;;;;;;;20.23;36.18;100675.03;5117135;28;739;-45
2021/03/05 00:09:38;;;;;;;;;;;;;;;20.13;36.54;100678.75;5116586;28;775;-45
2021/03/05 00:12:04;;;;;;;;;;;;;;;19.81;36.92;100669.31;5116795;28;1016;-58
2021/03/05 00:14:29;;;;;;;;;;;;;;;19.41;37.88;100671.47;5116942;28;846;-45
2021/03/05 00:16:54;;;;;;;;;;;;;;;19.37;37.99;100676.75;5116380;28;1561;-44
2021/03/05 00:19:20;;;;;;;;;;;;;;;20.17;36.36;100666.84;5116826;28;1917;-45
2021/03/05 00:21:45;;;;;;;;;;;;;;;20.64;35.54;100655.81;5116796;28;787;-52
2021/03/05 00:24:11;;;;;;;;;;;;;;;20.20;36.26;100656.31;5116305;28;727;-46
2021/03/05 00:26:36;;;;;;;;;;;;;;;19.95;36.66;100655.56;5116489;28;1063;-47
2021/03/05 00:29:02;;;;;;;;;;;;;;;19.45;37.97;100667.84;5116845;28;818;-57
2021/03/05 00:31:27;;;;;;;;;;;;;;;19.15;38.54;100655.25;5116248;28;862;-46
2021/03/05 00:33:53;;;;;;;;;;;;;;;20.31;36.16;100655.00;5116824;28;811;-45
2021/03/05 00:36:18;;;;;;;;;;;;;;;20.33;35.96;100650.03;5116364;28;1102;-46
2021/03/05 00:38:43;;;;;;;;;;;;;;;20.16;36.22;100648.63;5116165;28;1909;-48
2021/03/05 00:41:09;;;;;;;;;;;;;;;19.97;36.86;100648.63;5121463;28;969;-43
2021/03/05 00:43:34;;;;;;;;;;;;;;;19.40;37.87;100651.34;5136960;28;756;-47
2021/03/05 00:46:00;;;;;;;;;;;;;;;19.39;38.01;100644.22;5136787;28;823;-45
2021/03/05 00:48:28;;;;;;;;;;;;;;;20.37;36.24;100634.50;5135418;28;854;-46
2021/03/05 00:50:53;;;;;;;;;;;;;;;20.25;36.30;100636.91;5136941;28;1117;-45
2021/03/05 00:53:19;;;;;;;;;;;;;;;20.16;36.42;100629.31;5135687;28;1156;-46
2021/03/05 00:55:45;;;;;;;;;;;;;;;19.82;37.13;100635.91;5136820;28;945;-50
2021/03/05 00:58:16;;;;;;;;;;;;;;;19.21;38.44;100637.53;5135723;28;1983;-45
2021/03/05 01:00:41;;;;;;;;;;;;;;;19.64;37.56;100639.44;5136796;27;779;-44
2021/03/05 01:03:07;;;;;;;;;;;;;;;20.59;35.57;100630.22;5137347;28;794;-44
2021/03/05 01:05:32;;;;;;;;;;;;;;;20.22;36.03;100632.00;5136811;28;854;-45
2021/03/05 01:08:04;;;;;;;;;;;;;;;20.08;36.43;100632.75;5135295;28;1183;-45
2021/03/05 01:10:38;;;;;;;;;;;;;;;19.52;37.64;100617.00;5136763;28;968;-50
2021/03/05 01:13:03;;;;;;;;;;;;;;;19.34;38.24;100626.91;5137316;28;797;-46
2021/03/05 01:15:29;;;;;;;;;;;;;;;20.26;36.30;100616.44;5136609;28;743;-45
2021/03/05 01:17:54;;;;;;;;;;;;;;;20.25;36.11;100612.84;5123867;28;1922;-45
2021/03/05 01:20:20;;;;;;;;;;;;;;;20.09;36.45;100609.56;5116330;28;779;-44
2021/03/05 01:22:46;;;;;;;;;;;;;;;19.74;37.07;100613.66;5118556;28;763;-45
2021/03/05 01:25:13;;;;;;;;;;;;;;;19.11;38.72;100616.44;5119886;28;850;-46
2021/03/05 01:27:38;;;;;;;;;;;;;;;19.52;37.75;100614.25;5137734;27;996;-46
2021/03/05 01:30:04;;;;;;;;;;;;;;;20.50;35.71;100606.06;5140290;27;775;-45
2021/03/05 01:32:30;;;;;;;;;;;;;;;20.26;36.04;100608.97;5140346;27;814;-45
2021/03/05 01:34:55;;;;;;;;;;;;;;;20.19;36.38;100605.81;5140559;27;818;-45
2021/03/05 01:37:21;;;;;;;;;;;;;;;19.81;37.00;100614.94;5122328;27;1101;-45
2021/03/05 01:39:46;;;;;;;;;;;;;;;19.34;38.21;100619.44;5119514;28;1909;-46
2021/03/05 01:42:11;;;;;;;;;;;;;;;19.95;37.12;100614.19;5119604;28;965;-47
2021/03/05 01:44:37;;;;;;;;;;;;;;;20.60;35.42;100615.28;5119447;28;787;-45
2021/03/05 01:47:02;;;;;;;;;;;;;;;20.25;36.29;100612.84;5119604;28;751;-49
2021/03/05 01:49:28;;;;;;;;;;;;;;;20.14;36.28;100614.97;5119381;28;1281;-48
2021/03/05 01:51:53;;;;;;;;;;;;;;;19.55;37.68;100608.97;5119388;28;771;-47
2021/03/05 01:54:19;;;;;;;;;;;;;;;19.39;38.13;100611.13;5119369;28;822;-46
2021/03/05 01:56:45;;;;;;;;;;;;;;;20.38;36.17;100611.25;5119688;28;1012;-46
2021/03/05 01:59:11;;;;;;;;;;;;;;;20.31;35.88;100614.44;5119147;28;1913;-47
2021/03/05 02:01:37;;;;;;;;;;;;;;;20.14;36.27;100608.63;5118202;28;803;-46
2021/03/05 02:04:03;;;;;;;;;;;;;;;19.83;36.89;100604.44;5119511;28;819;-48
2021/03/05 02:06:28;;;;;;;;;;;;;;;19.37;38.08;100607.81;5117675;28;812;-46
2021/03/05 02:08:53;;;;;;;;;;;;;;;19.51;37.85;100612.63;5119153;28;846;-46
2021/03/05 02:11:22;;;;;;;;;;;;;;;20.43;35.90;100608.41;5119141;28;965;-45
2021/03/05 02:13:48;;;;;;;;;;;;;;;20.11;36.49;100610.06;5118836;28;498;-48
2021/03/05 02:16:40;;;;;;;;;;;;;;;20.23;36.24;100606.84;5119447;28;724;-47
2021/03/05 02:19:05;;;;;;;;;;;;;;;19.59;37.77;100609.19;5095523;28;1909;-48
2021/03/05 02:21:31;;;;;;;;;;;;;;;19.34;38.14;100607.63;5098457;28;839;-48
2021/03/05 02:24:15;;;;;;;;;;;;;;;19.86;37.08;100607.72;5098979;28;771;-47
2021/03/05 02:26:56;;;;;;;;;;;;;;;20.71;35.55;100608.47;5108085;28;1013;-48
2021/03/05 02:29:21;;;;;;;;;;;;;;;21.17;34.46;100615.84;5118291;28;739;-46
2021/03/05 02:31:47;;;;;;;;;;;;;;;20.64;35.52;100610.78;5119009;28;756;-49
2021/03/05 02:34:14;;;;;;;;;;;;;;;20.58;35.55;100621.13;5118813;28;850;-47
2021/03/05 02:36:42;;;;;;;;;;;;;;;19.92;37.03;100617.53;5118119;28;932;-45
2021/03/05 02:39:12;;;;;;;;;;;;;;;19.25;38.38;100622.06;5118685;28;1968;-44
2021/03/05 02:41:38;;;;;;;;;;;;;;;20.01;37.01;100613.00;5126602;27;970;-46
2021/03/05 02:44:04;;;;;;;;;;;;;;;20.72;35.28;100620.34;5139150;27;783;-45
2021/03/05 02:46:29;;;;;;;;;;;;;;;20.35;36.27;100614.63;5137981;27;834;-46
2021/03/05 02:48:56;;;;;;;;;;;;;;;20.35;35.91;100622.91;5125208;27;1086;-45
2021/03/05 02:51:22;;;;;;;;;;;;;;;19.74;37.22;100627.44;5117079;28;751;-45
2021/03/05 02:53:47;;;;;;;;;;;;;;;19.14;38.57;100621.34;5118522;28;823;-44
2021/03/05 02:56:13;;;;;;;;;;;;;;;19.62;37.62;100625.94;5122155;27;994;-45
2021/03/05 02:58:40;;;;;;;;;;;;;;;20.56;35.91;100628.06;5138373;27;1910;-45
2021/03/05 03:01:05;;;;;;;;;;;;;;;20.19;36.28;100625.13;5137349;27;847;-46
2021/03/05 03:03:31;;;;;;;;;;;;;;;20.13;36.64;100618.03;5119939;27;827;-48
2021/03/05 03:05:56;;;;;;;;;;;;;;;19.67;37.28;100622.31;5137294;27;759;-46
2021/03/05 03:08:22;;;;;;;;;;;;;;;19.15;38.47;100627.69;5137566;27;743;-55
2021/03/05 03:10:47;;;;;;;;;;;;;;;19.79;37.26;100630.97;5136950;27;1004;-46
2021/03/05 03:13:13;;;;;;;;;;;;;;;20.67;35.39;100629.53;5137088;27;803;-48
2021/03/05 03:15:38;;;;;;;;;;;;;;;20.12;36.44;100617.22;5138653;27;762;-50
2021/03/05 03:18:04;;;;;;;;;;;;;;;20.10;36.43;100618.63;5123192;27;1984;-47
2021/03/05 03:20:29;;;;;;;;;;;;;;;19.51;37.68;100618.13;5116242;28;779;-46
2021/03/05 03:22:55;;;;;;;;;;;;;;;19.06;38.74;100619.25;5117858;28;759;-45
2021/03/05 03:25:21;;;;;;;;;;;;;;;20.13;36.48;100607.81;5116204;28;878;-48
2021/03/05 03:27:46;;;;;;;;;;;;;;;20.45;35.97;100614.44;5136707;27;1104;-46
2021/03/05 03:30:13;;;;;;;;;;;;;;;20.25;36.10;100610.09;5138236;27;798;-47
2021/03/05 03:32:38;;;;;;;;;;;;;;;20.09;36.36;100611.47;5138155;27;786;-48
2021/03/05 03:35:07;;;;;;;;;;;;;;;19.42;37.72;100616.03;5138265;27;806;-45
2021/03/05 03:37:33;;;;;;;;;;;;;;;19.29;38.26;100602.97;5118436;27;1208;-53
2021/03/05 03:39:59;;;;;;;;;;;;;;;20.35;36.17;100604.38;5117785;28;1914;-46
2021/03/05 03:42:24;;;;;;;;;;;;;;;20.29;36.11;100599.28;5115699;28;981;-48
2021/03/05 03:44:50;;;;;;;;;;;;;;;20.18;36.54;100607.72;5116576;28;819;-45
2021/03/05 03:47:15;;;;;;;;;;;;;;;19.71;37.10;100606.78;5117584;28;822;-45
2021/03/05 03:49:45;;;;;;;;;;;;;;;19.20;38.58;100615.78;5116883;28;1173;-45
2021/03/05 03:52:13;;;;;;;;;;;;;;;19.33;38.13;100623.31;5116090;28;770;-58
2021/03/05 03:54:39;;;;;;;;;;;;;;;20.39;36.06;100621.19;5116170;28;1040;-45
2021/03/05 03:57:04;;;;;;;;;;;;;;;20.08;36.39;100610.66;5115672;28;954;-46
2021/03/05 03:59:31;;;;;;;;;;;;;;;20.13;36.35;100618.88;5115925;28;1909;-47
2021/03/05 04:01:56;;;;;;;;;;;;;;;19.75;37.14;100624.38;5117154;28;799;-46
2021/03/05 04:04:22;;;;;;;;;;;;;;;19.21;38.34;100617.41;5115547;28;751;-45
2021/03/05 04:06:49;;;;;;;;;;;;;;;20.18;36.25;100616.00;5115719;28;776;-46
2021/03/05 04:09:14;;;;;;;;;;;;;;;20.29;35.96;100611.13;5117044;28;731;-46
2021/03/05 04:11:40;;;;;;;;;;;;;;;20.10;36.28;100613.94;5116299;28;1001;-45
2021/03/05 04:14:05;;;;;;;;;;;;;;;19.89;37.04;100612.63;5116909;28;784;-49
2021/03/05 04:16:31;;;;;;;;;;;;;;;19.34;37.90;100602.09;5112285;28;1297;-47
2021/03/05 04:18:56;;;;;;;;;;;;;;;19.13;38.62;100605.13;5116456;28;1978;-48
2021/03/05 04:21:22;;;;;;;;;;;;;;;19.27;38.23;100597.75;5116441;28;843;-47
2021/03/05 04:23:48;;;;;;;;;;;;;;;19.41;37.95;100592.34;5115275;28;816;-45
2021/03/05 04:26:13;;;;;;;;;;;;;;;19.18;38.39;100598.72;5116483;28;1092;-47
2021/03/05 04:28:39;;;;;;;;;;;;;;;19.59;37.60;100598.16;5116254;28;791;-49
2021/03/05 04:31:04;;;;;;;;;;;;;;;20.38;35.78;100597.44;5116848;28;798;-52
2021/03/05 04:33:30;;;;;;;;;;;;;;;20.42;35.76;100592.94;5116979;28;755;-46
2021/03/05 04:35:55;;;;;;;;;;;;;;;20.12;36.51;100580.53;5116218;28;1110;-46
2021/03/05 04:38:21;;;;;;;;;;;;;;;19.78;36.95;100598.97;5116730;28;1977;-43
2021/03/05 04:40:46;;;;;;;;;;;;;;;19.45;37.58;100598.09;5118145;28;1019;-47
2021/03/05 04:43:12;;;;;;;;;;;;;;;19.32;38.19;100602.38;5136953;28;782;-45
2021/03/05 04:45:37;;;;;;;;;;;;;;;20.24;36.28;100591.88;5137311;28;822;-46
2021/03/05 04:48:03;;;;;;;;;;;;;;;20.16;36.26;100598.09;5137144;28;867;-49
2021/03/05 04:50:28;;;;;;;;;;;;;;;20.04;36.61;100595.81;5136606;28;1026;-45
2021/03/05 04:52:53;;;;;;;;;;;;;;;19.80;37.09;100604.22;5137233;28;763;-57
2021/03/05 04:55:19;;;;;;;;;;;;;;;19.23;38.12;100612.44;5123071;28;1449;-52
2021/03/05 04:57:44;;;;;;;;;;;;;;;19.80;36.81;100610.53;5119064;28;815;-44
2021/03/05 05:00:10;;;;;;;;;;;;;;;20.64;35.20;100608.03;5134073;27;1981;-46
2021/03/05 05:02:35;;;;;;;;;;;;;;;20.10;36.21;100607.59;5141146;27;851;-55
2021/03/05 05:05:01;;;;;;;;;;;;;;;20.11;36.25;100615.56;5141491;27;814;-51
2021/03/05 05:07:26;;;;;;;;;;;;;;;19.52;37.44;100615.06;5126969;27;889;-47
2021/03/05 05:09:52;;;;;;;;;;;;;;;18.96;38.53;100619.38;5120378;28;815;-50
2021/03/05 05:12:18;;;;;;;;;;;;;;;19.85;37.02;100622.63;5119836;28;993;-49
2021/03/05 05:14:43;;;;;;;;;;;;;;;20.43;35.56;100624.97;5120493;28;831;-48
2021/03/05 05:17:08;;;;;;;;;;;;;;;20.07;36.52;100622.81;5119345;28;1703;-48
2021/03/05 05:19:34;;;;;;;;;;;;;;;20.08;36.21;100621.69;5128979;27;1910;-48
2021/03/05 05:21:59;;;;;;;;;;;;;;;19.37;37.57;100618.84;5140917;27;782;-52
2021/03/05 05:24:25;;;;;;;;;;;;;;;19.56;37.40;100621.63;5140879;27;735;-46
2021/03/05 05:26:50;;;;;;;;;;;;;;;20.40;35.70;100628.34;5129285;27;956;-49
2021/03/05 05:29:16;;;;;;;;;;;;;;;20.13;36.40;100629.06;5120033;28;767;-48
2021/03/05 05:31:41;;;;;;;;;;;;;;;20.15;36.07;100629.59;5120198;28;843;-55
2021/03/05 05:34:07;;;;;;;;;;;;;;;19.72;37.30;100637.97;5119893;28;802;-45
2021/03/05 05:36:32;;;;;;;;;;;;;;;19.37;37.66;100640.91;5119880;28;1169;-46
2021/03/05 05:38:57;;;;;;;;;;;;;;;19.61;37.52;100634.53;5118600;28;1960;-45
2021/03/05 05:41:23;;;;;;;;;;;;;;;20.46;35.69;100642.88;5119247;28;922;-44
2021/03/05 05:43:49;;;;;;;;;;;;;;;20.10;36.22;100624.97;5119774;28;793;-45
2021/03/05 05:46:15;;;;;;;;;;;;;;;20.16;36.12;100626.53;5119963;28;767;-46
2021/03/05 05:48:42;;;;;;;;;;;;;;;19.56;37.34;100634.59;5118181;28;763;-47
2021/03/05 05:51:18;;;;;;;;;;;;;;;19.03;38.67;100641.88;5116358;28;1295;-46
2021/03/05 05:53:45;;;;;;;;;;;;;;;20.18;36.12;100627.03;5118543;28;503;-45
2021/03/05 05:56:12;;;;;;;;;;;;;;;20.17;35.96;100633.72;5117791;28;977;-45
2021/03/05 05:58:37;;;;;;;;;;;;;;;20.03;36.29;100641.09;5116940;28;1967;-48
2021/03/05 06:01:03;;;;;;;;;;;;;;;19.86;36.68;100636.13;5118397;28;723;-58
2021/03/05 06:03:28;;;;;;;;;;;;;;;19.41;37.62;100641.97;5114865;28;1913;-44
2021/03/05 06:05:57;;;;;;;;;;;;;;;19.17;38.07;100643.91;5118171;28;1011;-57
2021/03/05 06:08:22;;;;;;;;;;;;;;;20.17;36.08;100642.00;5117395;28;858;-46
2021/03/05 06:10:48;;;;;;;;;;;;;;;20.37;35.74;100640.00;5117601;28;1621;-46
2021/03/05 06:13:15;;;;;;;;;;;;;;;20.10;36.24;100641.53;5118395;28;803;-46
2021/03/05 06:15:42;;;;;;;;;;;;;;;19.86;36.69;100640.84;5118252;28;818;-46
2021/03/05 06:18:07;;;;;;;;;;;;;;;19.27;38.04;100652.09;5117626;28;1913;-45
2021/03/05 06:20:45;;;;;;;;;;;;;;;19.96;36.74;100654.47;5116226;28;937;-47
2021/03/05 06:23:13;;;;;;;;;;;;;;;20.47;35.43;100650.88;5116912;28;743;-45
2021/03/05 06:25:39;;;;;;;;;;;;;;;20.25;35.88;100648.75;5117249;28;965;-45
2021/03/05 06:28:14;;;;;;;;;;;;;;;20.02;36.52;100656.03;5117974;28;811;-47
2021/03/05 06:30:39;;;;;;;;;;;;;;;19.36;37.57;100663.28;5115579;28;1308;-44
2021/03/05 06:33:20;;;;;;;;;;;;;;;19.26;38.24;100661.47;5116526;28;823;-44
2021/03/05 06:35:45;;;;;;;;;;;;;;;20.32;36.08;100659.41;5117765;28;1094;-45
2021/03/05 06:38:11;;;;;;;;;;;;;;;20.17;36.05;100664.06;5116016;28;1913;-60
2021/03/05 06:40:37;;;;;;;;;;;;;;;20.16;36.28;100656.06;5116323;28;945;-63
2021/03/05 06:43:02;;;;;;;;;;;;;;;19.78;36.77;100659.66;5137021;28;756;-52
2021/03/05 06:45:34;;;;;;;;;;;;;;;19.34;37.86;100662.75;5138133;28;806;-49
2021/03/05 06:48:04;;;;;;;;;;;;;;;19.67;37.15;100656.22;5137646;28;810;-52
2021/03/05 06:50:30;;;;;;;;;;;;;;;20.60;35.21;100653.97;5111743;27;762510;-48
2021/03/05 06:52:56;;;;;;;;;;;;;;;20.25;35.83;100653.47;5138944;27;878;-49
2021/03/05 06:55:21;;;;;;;;;;;;;;;20.14;36.33;100663.84;5138687;27;754;-61
2021/03/05 06:57:47;;;;;;;;;;;;;;;19.48;37.43;100669.19;5137179;27;1005;-46
2021/03/05 07:00:17;;;;;;;;;;;;;;;19.34;37.90;100669.09;5119127;27;1906;-61
2021/03/05 07:02:42;;;;;;;;;;;;;;;20.32;35.99;100659.41;5118114;28;866;-64
2021/03/05 07:05:08;;;;;;;;;;;;;;;20.29;35.77;100673.84;5116652;28;895;-61
2021/03/05 07:07:40;;;;;;;;;;;;;;;20.28;35.88;100667.47;5117140;28;1284;-49
2021/03/05 07:10:06;;;;;;;;;;;;;;;19.84;36.88;100660.44;5118029;28;833;-50
2021/03/05 07:12:31;;;;;;;;;;;;;;;19.07;38.43;100669.66;5134544;27;1032;-49
2021/03/05 07:15:01;;;;;;;;;;;;;;;19.87;36.79;100675.59;5138842;27;823;-58
2021/03/05 07:17:26;;;;;;;;;;;;;;;20.44;35.47;100673.56;5138280;27;807;-46
2021/03/05 07:19:54;;;;;;;;;;;;;;;20.18;36.07;100671.22;5137572;27;1917;-61
2021/03/05 07:22:20;;;;;;;;;;;;;;;20.05;36.51;100677.50;5138375;27;814;-46
2021/03/05 07:24:48;;;;;;;;;;;;;;;19.12;38.21;100667.66;5137205;27;806;-44
2021/03/05 07:27:13;;;;;;;;;;;;;;;19.61;37.57;100667.63;5136578;27;973;-44
2021/03/05 07:29:45;;;;;;;;;;;;;;;20.42;35.70;100663.94;5137096;27;751;-45
2021/03/05 07:32:20;;;;;;;;;;;;;;;20.09;36.16;100673.03;5137986;27;905;-50
2021/03/05 07:34:59;;;;;;;;;;;;;;;20.20;35.96;100664.59;5138033;27;786;-59
2021/03/05 07:37:37;;;;;;;;;;;;;;;19.35;37.67;100662.47;5120022;27;1125;-47
2021/03/05 07:40:12;;;;;;;;;;;;;;;19.53;37.48;100665.53;5115841;28;1967;-45
2021/03/05 07:42:38;;;;;;;;;;;;;;;20.49;35.90;100662.41;5117346;28;953;-45
2021/03/05 07:45:04;;;;;;;;;;;;;;;20.08;36.27;100660.34;5117800;28;804;-45
2021/03/05 07:47:31;;;;;;;;;;;;;;;20.27;35.94;100667.78;5117414;28;748;-62
2021/03/05 07:49:59;;;;;;;;;;;;;;;19.56;37.29;100667.69;5115754;28;1030;-48
2021/03/05 07:52:25;;;;;;;;;;;;;;;19.31;38.28;100670.50;5117483;28;870;-52
2021/03/05 07:54:50;;;;;;;;;;;;;;;20.24;36.18;100668.38;5116996;28;822;-46
2021/03/05 07:57:19;;;;;;;;;;;;;;;20.21;35.98;100675.31;5116998;28;1028;-54
2021/03/05 07:59:50;;;;;;;;;;;;;;;20.03;36.45;100671.47;5117123;28;1909;-48
2021/03/05 08:02:15;;;;;;;;;;;;;;;19.74;37.09;100671.59;5116647;28;831;-48
2021/03/05 08:04:55;;;;;;;;;;;;;;;19.25;38.16;100668.09;5117161;28;775;-47
2021/03/05 08:07:21;;;;;;;;;;;;;;;19.40;37.96;100670.66;5117154;28;775;-63
2021/03/05 08:09:46;;;;;;;;;;;;;;;19.55;37.71;100657.78;5116573;28;807;-52
2021/03/05 08:12:45;;;;;;;;;;;;;;;19.71;37.00;100648.16;5116696;28;981;-62
2021/03/05 08:15:11;;;;;;;;;;;;;;;20.14;36.16;100652.81;5117074;28;755;-61
2021/03/05 08:17:38;;;;;;;;;;;;;;;20.29;35.82;100648.97;5116395;28;740;-46
2021/03/05 08:20:04;;;;;;;;;;;;;;;20.48;35.40;100652.50;5116742;28;1917;-49
2021/03/05 08:22:31;;;;;;;;;;;;;;;20.75;35.10;100644.59;5117190;28;759;-59
2021/03/05 08:25:15;;;;;;;;;;;;;;;20.80;34.75;100639.81;5116303;28;751;-47
2021/03/05 08:27:41;;;;;;;;;;;;;;;20.96;34.48;100637.56;5116867;28;942;-63
2021/03/05 08:30:11;;;;;;;;;;;;;;;21.08;34.43;100645.31;5117049;28;806;-50
2021/03/05 08:32:43;;;;;;;;;;;;;;;21.25;34.15;100635.59;5116206;28;759;-47
2021/03/05 08:35:12;;;;;;;;;;;;;;;21.24;33.92;100636.72;5116739;28;779;-50
2021/03/05 08:37:38;;;;;;;;;;;;;;;21.33;33.90;100637.63;5116605;28;1244;-45
2021/03/05 08:40:13;;;;;;;;;;;;;;;21.38;33.78;100634.78;5116292;28;1965;-47
2021/03/05 08:42:42;;;;;;;;;;;;;;;21.37;33.80;100627.59;5134171;28;1005;-46
2021/03/05 08:45:08;;;;;;;;;;;;;;;21.44;33.75;100628.00;5137044;28;752;-45
2021/03/05 08:47:37;;;;;;;;;;;;;;;21.59;33.41;100631.56;5137097;28;815;-60
2021/03/05 08:50:03;;;;;;;;;;;;;;;21.74;33.18;100630.41;5136860;28;1176;-61
2021/03/05 08:52:28;;;;;;;;;;;;;;;21.72;33.12;100621.63;5136984;28;752;-57
2021/03/05 08:54:54;;;;;;;;;;;;;;;21.65;33.17;100633.09;5135256;28;885;-48
2021/03/05 08:57:19;;;;;;;;;;;;;;;21.23;34.23;100624.03;5135746;28;1443;-54
2021/03/05 08:59:48;;;;;;;;;;;;;;;21.32;33.87;100624.94;5135095;28;1994;-47
2021/03/05 09:02:13;;;;;;;;;;;;;;;21.06;34.45;100628.25;5136666;28;892;-46
2021/03/05 09:04:41;;;;;;;;;;;;;;;20.63;34.89;100623.78;5137256;28;822;-45
2021/03/05 09:07:07;;;;;;;;;;;;;;;20.89;34.69;100620.56;5136942;28;846;-47
2021/03/05 09:09:33;;;;;;;;;;;;;;;21.40;33.65;100626.97;5135274;28;1345;-49
2021/03/05 09:12:05;;;;;;;;;;;;;;;21.62;33.13;100617.94;5136538;28;961;-46
2021/03/05 09:14:30;;;;;;;;;;;;;;;21.50;33.28;100621.22;5136801;28;783;-55
2021/03/05 09:16:56;;;;;;;;;;;;;;;21.80;32.73;100618.09;5136639;28;774;-48
2021/03/05 09:19:37;;;;;;;;;;;;;;;21.92;32.66;100617.53;5136716;28;1922;-47
2021/03/05 09:22:16;;;;;;;;;;;;;;;21.32;33.60;100622.16;5137117;27;734;-62
2021/03/05 09:25:00;;;;;;;;;;;;;;;21.14;33.74;100619.22;5136533;28;846;-54
2021/03/05 09:27:26;;;;;;;;;;;;;;;20.81;34.33;100624.03;5136402;28;960;-48
2021/03/05 09:29:52;;;;;;;;;;;;;;;20.91;34.07;100620.25;5136302;28;755;-50
2021/03/05 09:32:18;;;;;;;;;;;;;;;21.38;33.28;100629.25;5136999;28;775;-59
2021/03/05 09:34:59;;;;;;;;;;;;;;;21.67;32.92;100625.28;5136508;28;767;-59
2021/03/05 09:37:26;;;;;;;;;;;;;;;21.82;32.68;100621.38;5116521;28;1114;-55
2021/03/05 09:39:52;;;;;;;;;;;;;;;21.88;32.37;100620.09;5116020;28;1913;-48
2021/03/05 09:42:17;;;;;;;;;;;;;;;21.25;33.48;100625.38;5116564;28;1145;-53
2021/03/05 09:44:43;;;;;;;;;;;;;;;21.07;33.87;100626.28;5119589;28;781;-47
2021/03/05 09:47:09;;;;;;;;;;;;;;;20.70;34.47;100617.88;5119818;28;763;-56
2021/03/05 09:49:34;;;;;;;;;;;;;;;21.02;34.17;100619.72;5119641;27;1172;-50
2021/03/05 09:52:00;;;;;;;;;;;;;;;21.43;33.49;100612.50;5119378;28;904;-63
2021/03/05 09:54:38;;;;;;;;;;;;;;;21.67;32.95;100609.53;5119655;28;866;-48
2021/03/05 09:57:04;;;;;;;;;;;;;;;21.84;32.65;100608.84;5119397;28;1020;-52
2021/03/05 09:59:39;;;;;;;;;;;;;;;21.35;33.65;100603.03;5119221;28;1959;-53
2021/03/05 10:02:05;;;;;;;;;;;;;;;21.09;34.18;100601.94;5117808;28;784;-48
2021/03/05 10:04:30;;;;;;;;;;;;;;;20.87;34.46;100600.69;5119460;28;847;-63
2021/03/05 10:06:58;;;;;;;;;;;;;;;20.78;34.73;100595.06;5119155;28;815;-49
2021/03/05 10:09:24;;;;;;;;;;;;;;;21.34;33.59;100595.84;5119173;28;846;-63
2021/03/05 10:11:49;;;;;;;;;;;;;;;21.65;33.03;100591.59;5119116;28;973;-50
2021/03/05 10:14:14;;;;;;;;;;;;;;;21.78;32.84;100589.91;5118933;28;759;-62
2021/03/05 10:16:40;;;;;;;;;;;;;;;21.13;34.01;100583.59;5119074;28;752;-63
2021/03/05 10:19:06;;;;;;;;;;;;;;;21.00;34.32;100588.03;5119122;28;1914;-64
2021/03/05 10:21:31;;;;;;;;;;;;;;;20.61;34.98;100569.97;5119280;28;835;-59
2021/03/05 10:23:57;;;;;;;;;;;;;;;20.90;34.51;100579.91;5118864;28;831;-59
2021/03/05 10:26:22;;;;;;;;;;;;;;;21.40;33.46;100570.84;5111925;28;1026;-63
2021/03/05 10:28:58;;;;;;;;;;;;;;;21.66;33.03;100576.63;5098981;28;795;-61
2021/03/05 10:31:42;;;;;;;;;;;;;;;21.92;32.65;100568.50;5098510;28;835;-63
2021/03/05 10:34:17;;;;;;;;;;;;;;;21.82;32.60;100566.81;5117670;28;871;-48
2021/03/05 10:36:43;;;;;;;;;;;;;;;21.39;33.56;100569.19;5118378;28;1066;-46
2021/03/05 10:39:08;;;;;;;;;;;;;;;21.14;33.98;100563.09;5117906;28;1909;-48
2021/03/05 10:41:34;;;;;;;;;;;;;;;20.62;34.81;100555.03;5129345;27;987;-46
2021/03/05 10:43:59;;;;;;;;;;;;;;;21.02;34.15;100561.69;5138709;27;770;-59
2021/03/05 10:46:25;;;;;;;;;;;;;;;21.56;33.01;100557.50;5139227;27;878;-59
2021/03/05 10:48:50;;;;;;;;;;;;;;;21.77;32.76;100558.66;5139151;27;767;-62
2021/03/05 10:51:15;;;;;;;;;;;;;;;21.95;32.22;100554.06;5138494;27;1220;-46
2021/03/05 10:53:41;;;;;;;;;;;;;;;21.40;33.48;100549.53;5138585;27;746;-52
2021/03/05 10:56:06;;;;;;;;;;;;;;;21.26;33.44;100540.47;5138259;27;965;-46
2021/03/05 10:58:32;;;;;;;;;;;;;;;21.10;34.05;100529.75;5133426;27;1976;-49
2021/03/05 11:00:59;;;;;;;;;;;;;;;21.00;34.07;100529.97;5118371;28;756;-49
2021/03/05 11:03:25;;;;;;;;;;;;;;;21.53;33.08;100526.56;5118409;28;805;-56
2021/03/05 11:05:50;;;;;;;;;;;;;;;21.81;32.72;100531.97;5118034;28;831;-58
2021/03/05 11:08:19;;;;;;;;;;;;;;;22.00;32.36;100529.00;5117853;28;818;-60
2021/03/05 11:10:44;;;;;;;;;;;;;;;21.49;33.19;100520.00;5119377;27;973;-56
2021/03/05 11:13:10;;;;;;;;;;;;;;;21.43;33.24;100514.88;5136975;27;930;-55
2021/03/05 11:15:35;;;;;;;;;;;;;;;20.93;34.19;100518.50;5138356;27;811;-49
2021/03/05 11:18:01;;;;;;;;;;;;;;;20.77;34.56;100506.97;5123204;27;921;-52
2021/03/05 11:20:26;;;;;;;;;;;;;;;21.41;33.28;100509.69;5121340;27;1909;-58
2021/03/05 11:22:53;;;;;;;;;;;;;;;21.79;32.59;100505.75;5117510;27;1350;-54
2021/03/05 11:25:19;;;;;;;;;;;;;;;22.00;32.25;100503.28;5117506;28;1292;-55
2021/03/05 11:27:45;;;;;;;;;;;;;;;21.50;32.95;100516.09;5117033;28;1351;-55
2021/03/05 11:30:10;;;;;;;;;;;;;;;21.32;33.36;100515.16;5116830;28;1184;-51
2021/03/05 11:32:36;;;;;;;;;;;;;;;20.95;33.97;100505.19;5117287;28;1232;-58
2021/03/05 11:35:02;;;;;;;;;;;;;;;20.93;34.23;100507.44;5117466;28;1196;-56
2021/03/05 11:37:28;;;;;;;;;;;;;;;21.45;33.29;100507.13;5116159;28;1269;-54
2021/03/05 11:39:54;;;;;;;;;;;;;;;21.83;32.54;100502.03;5117457;28;1981;-58
2021/03/05 11:42:19;;;;;;;;;;;;;;;21.99;32.33;100504.41;5132176;27;961;-56
2021/03/05 11:44:45;;;;;;;;;;;;;;;21.33;33.53;100488.28;5137799;27;791;-48
2021/03/05 11:47:11;;;;;;;;;;;;;;;21.31;33.48;100507.97;5137878;27;803;-55
2021/03/05 11:49:36;;;;;;;;;;;;;;;20.87;34.19;100492.91;5137805;27;1373;-46
2021/03/05 11:52:02;;;;;;;;;;;;;;;21.11;34.02;100500.13;5137583;27;799;-46
2021/03/05 11:54:27;;;;;;;;;;;;;;;21.59;33.08;100490.47;5138126;27;854;-57
2021/03/05 11:56:53;;;;;;;;;;;;;;;21.74;32.67;100498.41;5137388;27;965;-55
2021/03/05 11:59:18;;;;;;;;;;;;;;;21.41;33.24;100493.09;5137309;27;1972;-58
2021/03/05 12:01:44;;;;;;;;;;;;;;;21.24;33.45;100490.16;5137872;27;842;-48
2021/03/05 12:04:09;;;;;;;;;;;;;;;21.02;33.84;100489.00;5137742;27;743;-63
2021/03/05 12:06:35;;;;;;;;;;;;;;;20.83;34.32;100481.69;5137008;27;858;-52
2021/03/05 12:09:00;;;;;;;;;;;;;;;21.34;33.41;100484.41;5137774;27;787;-53
2021/03/05 12:11:26;;;;;;;;;;;;;;;21.71;32.76;100487.94;5137227;27;977;-47
2021/03/05 12:13:51;;;;;;;;;;;;;;;21.99;32.16;100493.31;5137571;27;743;-67
2021/03/05 12:16:17;;;;;;;;;;;;;;;21.65;32.73;100490.03;5137288;27;775;-66
2021/03/05 12:18:42;;;;;;;;;;;;;;;20.88;34.18;100477.16;5137389;27;1980;-52
2021/03/05 12:21:08;;;;;;;;;;;;;;;20.92;34.16;100489.25;5137494;27;802;-57
2021/03/05 12:23:33;;;;;;;;;;;;;;;20.71;34.34;100484.16;5137301;27;807;-52
2021/03/05 12:25:59;;;;;;;;;;;;;;;21.25;33.50;100480.75;5137181;27;965;-45
2021/03/05 12:28:24;;;;;;;;;;;;;;;21.63;32.83;100475.69;5137236;27;763;-58
2021/03/05 12:30:50;;;;;;;;;;;;;;;21.87;32.44;100474.53;5137056;27;755;-48
2021/03/05 12:33:15;;;;;;;;;;;;;;;21.52;33.04;100472.38;5137423;27;775;-47
2021/03/05 12:35:41;;;;;;;;;;;;;;;21.23;33.30;100474.72;5133257;27;983;-53
2021/03/05 12:38:06;;;;;;;;;;;;;;;20.95;33.99;100477.56;5116502;28;794;-48
2021/03/05 12:40:32;;;;;;;;;;;;;;;20.60;34.56;100460.59;5116717;28;1905;-65
2021/03/05 12:42:57;;;;;;;;;;;;;;;21.31;33.31;100468.44;5114822;28;962;-47
2021/03/05 12:45:23;;;;;;;;;;;;;;;21.69;32.84;100459.78;5116602;28;754;-51
2021/03/05 12:47:48;;;;;;;;;;;;;;;21.96;32.29;100472.63;5116571;28;755;-47
2021/03/05 12:50:14;;;;;;;;;;;;;;;21.48;33.15;100471.31;5115996;28;1101;-46
2021/03/05 12:52:39;;;;;;;;;;;;;;;21.35;33.44;100470.25;5116881;28;779;-44